createdAt,value
2018-08-09T00:02:13.978Z,22.90
2018-08-09T00:04:42.957Z,22.80
2018-08-09T00:07:11.941Z,22.90
2018-08-09T00:09:40.921Z,22.80
2018-08-09T00:12:10.269Z,22.80
2018-08-09T00:14:39.261Z,22.70
2018-08-09T00:17:08.261Z,22.80
2018-08-09T00:19:37.266Z,23.00
2018-08-09T00:22:06.310Z,23.00
2018-08-09T00:24:35.291Z,23.00
2018-08-09T00:27:04.277Z,22.90
2018-08-09T00:29:33.301Z,23.10
2018-08-09T00:32:02.298Z,22.80
2018-08-09T00:34:31.281Z,22.50
2018-08-09T00:37:00.282Z,22.50
2018-08-09T00:39:29.253Z,22.40
2018-08-09T00:41:58.274Z,22.50
2018-08-09T00:44:27.250Z,22.90
2018-08-09T00:46:56.240Z,22.80
2018-08-09T00:49:25.235Z,22.50
2018-08-09T00:51:54.217Z,22.20
2018-08-09T00:54:23.225Z,21.90
2018-08-09T00:56:52.234Z,21.80
2018-08-09T00:59:21.232Z,21.70
2018-08-09T01:01:50.219Z,21.60
2018-08-09T01:04:19.251Z,21.60
2018-08-09T01:06:54.798Z,21.70
2018-08-09T01:09:23.809Z,21.90
2018-08-09T01:11:52.917Z,22.00
2018-08-09T01:14:21.943Z,21.90
2018-08-09T01:16:50.930Z,21.90
2018-08-09T01:19:19.923Z,22.10
2018-08-09T01:21:48.926Z,22.10
2018-08-09T01:24:17.918Z,22.20
2018-08-09T01:26:46.902Z,22.20
2018-08-09T01:29:15.910Z,22.10
2018-08-09T01:31:44.932Z,22.00
2018-08-09T01:34:13.922Z,21.90
2018-08-09T01:36:42.894Z,22.00
2018-08-09T01:39:13.092Z,22.10
2018-08-09T01:41:58.865Z,22.00
2018-08-09T01:44:27.856Z,22.50
2018-08-09T01:46:56.850Z,22.70
2018-08-09T01:49:25.891Z,22.30
2018-08-09T01:51:54.904Z,21.90
2018-08-09T01:54:23.894Z,21.70
2018-08-09T01:56:52.885Z,21.60
2018-08-09T01:59:21.977Z,21.70
2018-08-09T02:01:50.963Z,21.60
2018-08-09T02:04:19.938Z,21.60
2018-08-09T02:06:48.936Z,21.70
2018-08-09T02:09:23.270Z,21.70
2018-08-09T02:11:52.260Z,21.80
2018-08-09T02:14:21.274Z,22.00
2018-08-09T02:16:50.378Z,21.90
2018-08-09T02:19:19.382Z,21.70
2018-08-09T02:21:48.353Z,21.70
2018-08-09T02:24:17.416Z,21.40
2018-08-09T02:26:46.414Z,21.40
2018-08-09T02:29:15.408Z,21.50
2018-08-09T02:31:44.381Z,21.30
2018-08-09T02:34:13.374Z,21.20
2018-08-09T02:36:42.370Z,21.10
2018-08-09T02:39:11.465Z,21.20
2018-08-09T02:41:40.559Z,21.20
2018-08-09T02:44:09.553Z,21.30
2018-08-09T02:46:38.566Z,21.60
2018-08-09T02:49:07.661Z,21.60
2018-08-09T02:51:36.647Z,21.70
2018-08-09T02:54:05.651Z,21.80
2018-08-09T02:56:34.634Z,21.60
2018-08-09T02:59:03.622Z,21.60
2018-08-09T03:01:32.722Z,21.60
2018-08-09T03:04:01.715Z,21.70
2018-08-09T03:06:30.720Z,21.50
2018-08-09T03:08:59.705Z,21.60
2018-08-09T03:11:29.031Z,21.60
2018-08-09T03:13:58.034Z,21.70
2018-08-09T03:16:27.050Z,21.60
2018-08-09T03:18:56.045Z,21.80
2018-08-09T03:21:25.035Z,21.70
2018-08-09T03:23:54.042Z,21.80
2018-08-09T03:26:23.046Z,22.10
2018-08-09T03:28:53.570Z,22.10
2018-08-09T03:31:22.554Z,21.80
2018-08-09T03:33:51.554Z,21.70
2018-08-09T03:36:20.578Z,21.70
2018-08-09T03:38:49.581Z,21.70
2018-08-09T03:41:18.566Z,21.80
2018-08-09T03:43:47.578Z,21.90
2018-08-09T03:46:16.587Z,22.10
2018-08-09T03:48:45.574Z,22.00
2018-08-09T03:51:14.573Z,21.90
2018-08-09T03:53:43.570Z,21.90
2018-08-09T03:56:12.579Z,21.70
2018-08-09T03:58:41.571Z,21.70
2018-08-09T04:01:10.594Z,21.60
2018-08-09T04:03:39.597Z,21.60
2018-08-09T04:06:08.618Z,21.80
2018-08-09T04:08:37.733Z,21.90
2018-08-09T04:11:06.757Z,21.90
2018-08-09T04:13:35.762Z,21.90
2018-08-09T04:16:05.123Z,22.00
2018-08-09T04:18:34.109Z,21.60
2018-08-09T04:21:03.108Z,21.70
2018-08-09T04:23:32.105Z,21.80
2018-08-09T04:26:01.087Z,21.70
2018-08-09T04:28:30.070Z,21.80
2018-08-09T04:30:59.090Z,21.80
2018-08-09T04:33:28.186Z,21.80
2018-08-09T04:35:57.190Z,21.80
2018-08-09T04:38:26.214Z,22.00
2018-08-09T04:40:55.244Z,22.00
2018-08-09T04:43:24.222Z,21.90
2018-08-09T04:45:53.207Z,21.80
2018-08-09T04:48:22.209Z,21.80
2018-08-09T04:50:51.227Z,22.00
2018-08-09T04:53:20.291Z,22.30
2018-08-09T04:55:49.278Z,22.30
2018-08-09T04:58:18.284Z,22.50
2018-08-09T05:00:47.293Z,22.80
2018-08-09T05:03:16.318Z,22.70
2018-08-09T05:05:45.334Z,22.90
2018-08-09T05:08:14.366Z,23.00
2018-08-09T05:10:43.372Z,22.90
2018-08-09T05:13:12.410Z,23.00
2018-08-09T05:15:41.405Z,23.10
2018-08-09T05:18:10.442Z,23.00
2018-08-09T05:20:39.481Z,23.10
2018-08-09T05:23:08.566Z,23.30
2018-08-09T05:25:37.525Z,23.10
2018-08-09T05:28:06.516Z,22.90
2018-08-09T05:30:35.501Z,22.90
2018-08-09T05:33:04.512Z,22.60
2018-08-09T05:35:33.497Z,22.20
2018-08-09T05:38:02.497Z,22.20
2018-08-09T05:40:31.522Z,22.40
2018-08-09T05:43:00.555Z,22.40
2018-08-09T05:45:29.548Z,22.20
2018-08-09T05:47:58.546Z,22.40
2018-08-09T05:50:27.577Z,22.70
2018-08-09T05:52:56.695Z,22.60
2018-08-09T05:55:25.654Z,22.50
2018-08-09T05:57:54.646Z,22.60
2018-08-09T06:00:23.641Z,22.60
2018-08-09T06:02:52.650Z,23.00
2018-08-09T06:05:21.636Z,23.00
2018-08-09T06:07:50.646Z,23.00
2018-08-09T06:10:19.637Z,23.10
2018-08-09T06:12:48.650Z,23.00
2018-08-09T06:15:17.650Z,22.90
2018-08-09T06:17:46.650Z,23.00
2018-08-09T06:20:15.643Z,23.20
2018-08-09T06:22:45.223Z,23.40
2018-08-09T06:25:14.211Z,23.60
2018-08-09T06:27:43.234Z,23.80
2018-08-09T06:30:12.242Z,23.90
2018-08-09T06:32:41.250Z,23.70
2018-08-09T06:35:11.135Z,23.60
2018-08-09T06:37:40.169Z,23.70
2018-08-09T06:40:12.879Z,23.60
2018-08-09T06:42:43.023Z,23.80
2018-08-09T06:45:12.074Z,23.80
2018-08-09T06:47:41.241Z,23.90
2018-08-09T06:50:11.378Z,24.10
2018-08-09T06:52:40.381Z,24.30
2018-08-09T06:55:09.381Z,24.50
2018-08-09T06:57:38.386Z,24.70
2018-08-09T07:00:11.002Z,25.00
2018-08-09T07:02:40.065Z,25.10
2018-08-09T07:05:09.054Z,25.00
2018-08-09T07:07:38.471Z,24.80
2018-08-09T07:10:08.015Z,24.80
2018-08-09T07:12:37.009Z,24.70
2018-08-09T07:15:10.342Z,24.90
2018-08-09T07:17:39.682Z,25.10
2018-08-09T07:20:09.610Z,25.20
2018-08-09T07:22:39.958Z,25.50
2018-08-09T07:25:09.266Z,25.60
2018-08-09T07:27:38.453Z,25.50
2018-08-09T07:30:10.676Z,25.80
2018-08-09T07:32:39.977Z,26.00
2018-08-09T07:35:09.742Z,25.90
2018-08-09T07:37:38.750Z,26.10
2018-08-09T07:40:10.086Z,26.40
2018-08-09T07:42:39.491Z,26.30
2018-08-09T07:45:10.973Z,26.30
2018-08-09T07:47:40.110Z,26.30
2018-08-09T07:50:09.933Z,26.10
2018-08-09T07:52:39.281Z,26.30
2018-08-09T07:55:09.719Z,26.40
2018-08-09T07:57:39.369Z,26.50
2018-08-09T08:00:11.099Z,26.60
2018-08-09T08:02:40.467Z,26.80
2018-08-09T08:05:09.468Z,27.00
2018-08-09T08:07:38.756Z,27.00
2018-08-09T08:10:09.437Z,26.80
2018-08-09T08:12:38.518Z,26.70
2018-08-09T08:15:08.553Z,26.80
2018-08-09T08:17:37.571Z,27.10
2018-08-09T08:20:07.286Z,27.10
2018-08-09T08:22:36.462Z,27.00
2018-08-09T08:25:06.294Z,26.80
2018-08-09T08:27:35.389Z,26.90
2018-08-09T08:30:07.967Z,27.00
2018-08-09T08:32:36.979Z,27.30
2018-08-09T08:35:06.402Z,27.70
2018-08-09T08:37:35.559Z,27.80
2018-08-09T08:40:04.922Z,28.00
2018-08-09T08:42:33.923Z,28.00
2018-08-09T08:45:02.919Z,28.20
2018-08-09T08:47:31.956Z,28.40
2018-08-09T08:50:00.929Z,28.50
2018-08-09T08:52:29.925Z,28.70
2018-08-09T08:54:58.951Z,28.90
2018-08-09T08:57:27.930Z,28.90
2018-08-09T08:59:56.950Z,29.00
2018-08-09T09:02:25.930Z,29.00
2018-08-09T09:04:54.962Z,29.20
2018-08-09T09:07:23.912Z,29.20
2018-08-09T09:09:52.901Z,29.30
2018-08-09T09:12:21.913Z,29.20
2018-08-09T09:14:50.918Z,29.30
2018-08-09T09:17:19.893Z,29.20
2018-08-09T09:19:48.910Z,29.20
2018-08-09T09:22:17.922Z,29.20
2018-08-09T09:24:46.921Z,29.10
2018-08-09T09:27:16.047Z,29.50
2018-08-09T09:29:45.051Z,29.60
2018-08-09T09:32:14.178Z,29.80
2018-08-09T09:34:43.194Z,29.80
2018-08-09T09:37:12.187Z,29.70
2018-08-09T09:39:41.178Z,30.00
2018-08-09T09:42:10.180Z,30.20
2018-08-09T09:44:39.174Z,30.30
2018-08-09T09:47:08.192Z,30.50
2018-08-09T09:49:37.230Z,30.60
2018-08-09T09:52:06.193Z,30.70
2018-08-09T09:54:35.194Z,30.90
2018-08-09T09:57:04.207Z,30.70
2018-08-09T09:59:33.213Z,30.90
2018-08-09T10:02:02.325Z,31.10
2018-08-09T10:04:31.274Z,31.20
2018-08-09T10:07:00.308Z,31.10
2018-08-09T10:09:29.397Z,31.30
2018-08-09T10:11:58.398Z,31.40
2018-08-09T10:14:27.530Z,31.40
2018-08-09T10:16:56.556Z,31.40
2018-08-09T10:19:25.529Z,31.20
2018-08-09T10:21:54.552Z,31.10
2018-08-09T10:24:23.547Z,31.30
2018-08-09T10:26:52.542Z,31.30
2018-08-09T10:29:21.538Z,31.30
2018-08-09T10:31:50.529Z,31.50
2018-08-09T10:34:19.538Z,31.60
2018-08-09T10:36:48.622Z,31.50
2018-08-09T10:39:17.626Z,31.80
2018-08-09T10:41:46.607Z,32.00
2018-08-09T10:44:15.594Z,32.10
2018-08-09T10:46:44.581Z,32.40
2018-08-09T10:49:13.558Z,32.30
2018-08-09T10:51:42.570Z,32.30
2018-08-09T10:54:11.679Z,32.20
2018-08-09T10:56:40.678Z,32.40
2018-08-09T10:59:09.666Z,32.60
2018-08-09T11:01:38.660Z,32.10
2018-08-09T11:04:07.640Z,32.60
2018-08-09T11:06:36.641Z,32.90
2018-08-09T11:09:09.493Z,33.10
2018-08-09T11:11:38.482Z,33.50
2018-08-09T11:14:07.745Z,33.80
2018-08-09T11:16:36.711Z,33.80
2018-08-09T11:19:05.993Z,34.20
2018-08-09T11:21:34.990Z,34.60
2018-08-09T11:24:03.993Z,34.70
2018-08-09T11:26:32.979Z,34.90
2018-08-09T11:29:01.974Z,35.40
2018-08-09T11:31:30.979Z,35.80
2018-08-09T11:33:59.999Z,35.80
2018-08-09T11:36:28.982Z,36.10
2018-08-09T11:38:57.962Z,36.50
2018-08-09T11:41:27.026Z,36.30
2018-08-09T11:43:56.038Z,36.60
2018-08-09T11:46:25.031Z,36.70
2018-08-09T11:48:54.037Z,36.90
2018-08-09T11:51:23.030Z,37.30
2018-08-09T11:53:52.030Z,36.70
2018-08-09T11:56:21.061Z,36.70
2018-08-09T11:58:50.822Z,36.80
2018-08-09T12:01:19.935Z,37.00
2018-08-09T12:03:48.930Z,37.50
2018-08-09T12:06:17.934Z,37.40
2018-08-09T12:08:46.922Z,37.50
2018-08-09T12:11:16.024Z,37.50
2018-08-09T12:13:45.007Z,38.00
2018-08-09T12:16:14.010Z,38.40
2018-08-09T12:18:43.049Z,38.80
2018-08-09T12:21:12.157Z,38.10
2018-08-09T12:23:41.154Z,38.80
2018-08-09T12:26:10.310Z,39.20
2018-08-09T12:28:39.311Z,39.20
2018-08-09T12:31:08.297Z,38.60
2018-08-09T12:33:37.281Z,38.80
2018-08-09T12:36:06.334Z,38.60
2018-08-09T12:38:35.369Z,39.40
2018-08-09T12:41:04.389Z,39.30
2018-08-09T12:43:33.385Z,39.00
2018-08-09T12:46:02.404Z,39.50
2018-08-09T12:48:31.409Z,38.90
2018-08-09T12:51:00.409Z,39.00
2018-08-09T12:53:29.418Z,38.80
2018-08-09T12:55:58.426Z,38.40
2018-08-09T12:58:27.511Z,38.60
2018-08-09T13:00:56.505Z,38.50
2018-08-09T13:03:25.514Z,38.90
2018-08-09T13:05:54.551Z,39.10
2018-08-09T13:08:23.645Z,38.90
2018-08-09T13:10:53.354Z,39.10
2018-08-09T13:13:22.345Z,39.40
2018-08-09T13:15:51.337Z,39.30
2018-08-09T13:18:20.370Z,39.60
2018-08-09T13:20:49.363Z,40.10
2018-08-09T13:23:18.399Z,40.20
2018-08-09T13:25:47.401Z,40.00
2018-08-09T13:28:16.450Z,38.70
2018-08-09T13:30:45.440Z,37.70
2018-08-09T13:33:14.490Z,36.80
2018-08-09T13:35:43.606Z,35.80
2018-08-09T13:38:12.637Z,34.30
2018-08-09T13:40:41.667Z,33.40
2018-08-09T13:43:10.724Z,32.90
2018-08-09T13:45:39.799Z,32.40
2018-08-09T13:48:08.797Z,32.20
2018-08-09T13:50:37.774Z,32.30
2018-08-09T13:53:06.805Z,32.00
2018-08-09T13:55:35.823Z,32.50
2018-08-09T13:58:04.901Z,32.80
2018-08-09T14:00:33.914Z,33.10
2018-08-09T14:03:02.917Z,33.40
2018-08-09T14:05:31.957Z,33.40
2018-08-09T14:08:00.959Z,33.30
2018-08-09T14:10:29.965Z,32.80
2018-08-09T14:12:58.953Z,32.60
2018-08-09T14:15:27.954Z,32.20
2018-08-09T14:17:56.952Z,32.20
2018-08-09T14:20:25.946Z,32.30
2018-08-09T14:22:54.974Z,32.40
2018-08-09T14:25:23.970Z,32.30
2018-08-09T14:27:53.038Z,32.30
2018-08-09T14:30:22.059Z,32.30
2018-08-09T14:32:51.075Z,32.30
2018-08-09T14:35:20.074Z,32.10
2018-08-09T14:37:49.099Z,32.00
2018-08-09T14:40:18.082Z,31.90
2018-08-09T14:42:48.126Z,32.00
2018-08-09T14:45:17.550Z,31.90
2018-08-09T14:47:46.641Z,32.00
2018-08-09T14:50:15.633Z,32.30
2018-08-09T14:52:44.686Z,32.30
2018-08-09T14:55:14.010Z,32.50
2018-08-09T14:57:43.204Z,32.70
2018-08-09T15:00:18.035Z,32.40
2018-08-09T15:02:47.883Z,32.30
2018-08-09T15:05:17.483Z,32.20
2018-08-09T15:07:46.519Z,31.90
2018-08-09T15:10:16.846Z,31.80
2018-08-09T15:12:45.890Z,31.70
2018-08-09T15:15:14.886Z,31.60
2018-08-09T15:17:43.929Z,31.50
2018-08-09T15:20:14.172Z,31.90
2018-08-09T15:22:43.303Z,31.90
2018-08-09T15:25:12.580Z,31.80
2018-08-09T15:27:41.659Z,31.80
2018-08-09T15:30:17.384Z,31.90
2018-08-09T15:32:46.841Z,31.90
2018-08-09T15:35:22.921Z,31.80
2018-08-09T15:38:13.344Z,32.30
2018-08-09T15:40:42.370Z,32.20
2018-08-09T15:43:11.335Z,32.10
2018-08-09T15:45:40.334Z,31.90
2018-08-09T15:48:09.384Z,32.00
2018-08-09T15:50:38.549Z,31.80
2018-08-09T15:53:07.586Z,31.70
2018-08-09T15:55:36.601Z,31.50
2018-08-09T15:58:05.638Z,31.40
2018-08-09T16:00:34.622Z,31.50
2018-08-09T16:03:03.964Z,31.30
2018-08-09T16:05:32.962Z,31.10
2018-08-09T16:08:02.007Z,30.90
2018-08-09T16:10:31.003Z,30.80
2018-08-09T16:13:02.229Z,30.60
2018-08-09T16:15:34.623Z,30.60
2018-08-09T16:18:03.893Z,30.70
2018-08-09T16:20:33.532Z,30.80
2018-08-09T16:23:02.529Z,31.00
2018-08-09T16:25:34.014Z,31.10
2018-08-09T16:28:07.332Z,31.10
2018-08-09T16:30:38.298Z,30.60
2018-08-09T16:33:07.418Z,30.20
2018-08-09T16:35:36.461Z,29.50
2018-08-09T16:38:05.478Z,28.70
2018-08-09T16:40:34.494Z,28.00
2018-08-09T16:43:03.953Z,27.80
2018-08-09T16:45:33.709Z,28.20
2018-08-09T16:48:03.020Z,28.30
2018-08-09T16:50:33.686Z,28.00
2018-08-09T16:53:03.130Z,27.20
2018-08-09T16:55:32.125Z,26.50
2018-08-09T16:58:01.114Z,26.40
2018-08-09T17:00:30.155Z,26.70
2018-08-09T17:02:59.158Z,26.80
2018-08-09T17:05:28.442Z,27.00
2018-08-09T17:07:57.869Z,27.20
2018-08-09T17:10:27.198Z,27.30
2018-08-09T17:12:56.221Z,27.20
2018-08-09T17:15:27.136Z,27.10
2018-08-09T17:17:57.046Z,27.10
2018-08-09T17:20:28.762Z,27.10
2018-08-09T17:22:58.062Z,27.40
2018-08-09T17:25:27.122Z,27.60
2018-08-09T17:27:56.101Z,27.80
2018-08-09T17:30:26.508Z,27.50
2018-08-09T17:32:56.294Z,27.30
2018-08-09T17:35:25.310Z,26.80
2018-08-09T17:37:54.770Z,26.30
2018-08-09T17:40:26.726Z,26.30
2018-08-09T17:42:56.713Z,26.20
2018-08-09T17:45:30.730Z,26.20
2018-08-09T17:48:00.306Z,26.30
2018-08-09T17:50:29.320Z,26.30
2018-08-09T17:53:01.177Z,26.30
2018-08-09T17:55:30.759Z,26.50
2018-08-09T17:57:59.762Z,26.50
2018-08-09T18:00:30.154Z,26.60
2018-08-09T18:02:59.265Z,26.40
2018-08-09T18:05:28.311Z,26.20
2018-08-09T18:07:58.346Z,26.10
2018-08-09T18:10:30.206Z,25.80
2018-08-09T18:12:59.217Z,25.20
2018-08-09T18:15:29.221Z,24.70
2018-08-09T18:17:58.779Z,24.20
2018-08-09T18:20:31.342Z,23.90
2018-08-09T18:23:00.595Z,23.60
2018-08-09T18:25:30.194Z,23.00
2018-08-09T18:27:59.246Z,22.60
2018-08-09T18:30:28.296Z,22.30
2018-08-09T18:32:57.338Z,22.20
2018-08-09T18:35:27.725Z,22.20
2018-08-09T18:37:56.786Z,22.20
2018-08-09T18:40:28.027Z,22.20
2018-08-09T18:42:57.115Z,22.60
2018-08-09T18:45:26.135Z,22.70
2018-08-09T18:47:55.169Z,22.80
2018-08-09T18:50:28.510Z,23.00
2018-08-09T18:52:57.626Z,23.00
2018-08-09T18:55:26.646Z,23.00
2018-08-09T18:57:55.654Z,23.20
2018-08-09T19:00:27.329Z,23.40
2018-08-09T19:02:56.452Z,22.80
2018-08-09T19:05:25.779Z,22.60
2018-08-09T19:07:54.782Z,22.40
2018-08-09T19:10:25.864Z,21.90
2018-08-09T19:12:54.901Z,21.50
2018-08-09T19:15:23.902Z,21.40
2018-08-09T19:17:53.077Z,21.20
2018-08-09T19:20:26.721Z,21.10
2018-08-09T19:22:55.879Z,21.10
2018-08-09T19:25:24.909Z,21.10
2018-08-09T19:27:53.968Z,21.20
2018-08-09T19:30:24.994Z,21.30
2018-08-09T19:32:54.003Z,21.20
2018-08-09T19:35:23.357Z,21.30
2018-08-09T19:37:56.872Z,21.20
2018-08-09T19:40:29.885Z,21.10
2018-08-09T19:42:59.201Z,21.20
2018-08-09T19:45:28.214Z,21.20
2018-08-09T19:47:58.486Z,21.20
2018-08-09T19:50:27.833Z,21.20
2018-08-09T19:52:58.562Z,21.00
2018-08-09T19:55:28.205Z,21.00
2018-08-09T19:57:57.205Z,21.00
2018-08-09T20:00:29.022Z,21.00
2018-08-09T20:02:58.031Z,21.00
2018-08-09T20:05:27.014Z,21.10
2018-08-09T20:07:56.434Z,21.20
2018-08-09T20:10:25.550Z,21.30
2018-08-09T20:12:54.586Z,21.20
2018-08-09T20:15:24.406Z,21.40
2018-08-09T20:17:53.413Z,21.40
2018-08-09T20:20:23.974Z,21.40
2018-08-09T20:22:53.191Z,21.30
2018-08-09T20:25:22.154Z,21.20
2018-08-09T20:27:51.154Z,21.20
2018-08-09T20:30:20.329Z,21.10
2018-08-09T20:32:49.647Z,21.00
2018-08-09T20:35:21.914Z,20.90
2018-08-09T20:37:51.342Z,20.90
2018-08-09T20:40:21.486Z,20.90
2018-08-09T20:42:51.554Z,20.80
2018-08-09T20:45:21.757Z,20.80
2018-08-09T20:47:50.775Z,20.80
2018-08-09T20:50:21.337Z,20.70
2018-08-09T20:52:50.708Z,20.70
2018-08-09T20:55:19.733Z,20.70
2018-08-09T20:57:49.487Z,20.60
2018-08-09T21:00:21.835Z,20.50
2018-08-09T21:02:52.218Z,20.40
2018-08-09T21:05:24.052Z,20.30
2018-08-09T21:07:53.843Z,20.30
2018-08-09T21:10:23.246Z,20.20
2018-08-09T21:12:52.270Z,20.20
2018-08-09T21:15:21.606Z,20.10
2018-08-09T21:17:50.622Z,20.20
2018-08-09T21:20:19.678Z,20.30
2018-08-09T21:22:49.429Z,20.30
2018-08-09T21:25:18.541Z,20.30
2018-08-09T21:27:48.045Z,20.20
2018-08-09T21:30:18.521Z,20.30
2018-08-09T21:32:48.000Z,20.40
2018-08-09T21:35:16.997Z,20.50
2018-08-09T21:37:46.323Z,20.50
2018-08-09T21:40:15.749Z,20.50
2018-08-09T21:42:44.898Z,20.60
2018-08-09T21:45:17.426Z,20.60
2018-08-09T21:47:46.410Z,20.70
2018-08-09T21:50:17.214Z,20.70
2018-08-09T21:52:46.214Z,20.80
2018-08-09T21:55:15.330Z,20.90
2018-08-09T21:57:45.258Z,20.70
2018-08-09T22:00:43.874Z,20.70
2018-08-09T22:03:12.879Z,20.80
2018-08-09T22:05:47.197Z,20.90
2018-08-09T22:08:21.563Z,20.80
2018-08-09T22:10:55.750Z,20.90
2018-08-09T22:13:30.075Z,21.00
2018-08-09T22:16:04.385Z,21.10
2018-08-09T22:18:38.606Z,20.90
2018-08-09T22:21:13.185Z,21.00
2018-08-09T22:23:42.178Z,21.10
2018-08-09T22:26:11.849Z,21.20
2018-08-09T22:28:41.185Z,21.10
2018-08-09T22:31:10.185Z,21.10
2018-08-09T22:33:39.190Z,21.10
2018-08-09T22:36:08.312Z,21.20
2018-08-09T22:38:37.250Z,21.20
2018-08-09T22:41:06.280Z,21.20
2018-08-09T22:43:35.268Z,21.20
2018-08-09T22:46:04.409Z,21.20
2018-08-09T22:48:33.786Z,21.20
2018-08-09T22:51:02.802Z,21.20
2018-08-09T22:53:31.825Z,21.20
2018-08-09T22:56:00.894Z,21.10
2018-08-09T22:58:29.885Z,21.20
2018-08-09T23:00:58.906Z,21.10
2018-08-09T23:03:27.962Z,20.90
2018-08-09T23:05:56.995Z,20.90
2018-08-09T23:08:25.997Z,21.00
2018-08-09T23:10:54.994Z,21.00
2018-08-09T23:13:24.033Z,21.00
2018-08-09T23:15:53.022Z,20.80
2018-08-09T23:18:22.049Z,20.70
2018-08-09T23:20:51.038Z,20.60
2018-08-09T23:23:20.028Z,20.70
2018-08-09T23:25:49.123Z,20.60
2018-08-09T23:28:18.251Z,20.40
2018-08-09T23:30:47.226Z,20.40
2018-08-09T23:33:21.026Z,20.40
2018-08-09T23:35:50.137Z,20.40
2018-08-09T23:38:19.131Z,20.40
2018-08-09T23:40:48.114Z,20.30
2018-08-09T23:43:17.117Z,20.10
2018-08-09T23:45:46.114Z,20.10
2018-08-09T23:48:15.106Z,19.80
2018-08-09T23:50:44.104Z,19.70
2018-08-09T23:53:13.109Z,19.60
2018-08-09T23:55:42.112Z,19.40
2018-08-09T23:58:11.232Z,19.30
